Thunder radar more information blitzortung!


Radar de pluja more information rain snow radar


Visita la nostra xarxa de llocs de meteo:

Template documentation
and downloads

And another site



No particular awareness of the weather is required.    There are no Weather-warnings

Pagina Historial Weather Underground text

Diari Resum Setembre 12, 2017 Unitats:  Tant    Imperial   Mètric
« Previous Dia
SegĂźent Dia »
Diari Setmana Mensual Anual Personalitzada
  Maxima: Minima: Media:
Temperatura: TemperatureC °F /  -17.8 °C 16.8 °F /  -8.4 °C 21.5 °F /  -5.8 °C
Punt de rosada: DewpointC °F /  -17.8 °C 8.7 °F /  -12.9 °C 12 °F /  -11.1 °C
Humitat: Humidity % 33 % 56 %
Wind Speed: WindSpeedKMH mph /  0 km/h - 4.8 mph /  7.7 km/h
RĂ fegues de vent: WindSpeedGustKMH mph /  0 km/h - -
Vent:- - SSW
Pression baro: PressurehPa in /  0 hPa 1008.0 in /  34130.9 hPa -
Precipitacions: 0.0 in /  0 mm    
Historical Graphs
 
 
Dades de taula per Setembre 12, 2017
Temps Temperatura Punt de rosada Pression baro Vent Wind Speed RĂ fegues de vent Humitat Rainfall Rate (Hourly)
TemperatureC °F /  -17.8 °C DewpointC °F /  -17.8 °C PressurehPa in /  0 hPa Calm     Humidity % HourlyPrecipMM in /  0 mm
00:00 17.7 °F /  -7.9 °C 14.6 °F /  -9.7 °C 1011.7 in /  34256.2 hPa Calm   3.2 mph /  5.1 km/h 82 % 0.0 in /  0 mm
00:03 28.0 °F /  -2.2 °C 10.7 °F /  -11.8 °C 1008.0 in /  34130.9 hPa SW 11.9 mph /  19.2 km/h 11.9 mph /  19.2 km/h 34 % 0.0 in /  0 mm
00:08 28.0 °F /  -2.2 °C 10.7 °F /  -11.8 °C 1008.0 in /  34130.9 hPa SW 11.9 mph /  19.2 km/h 11.9 mph /  19.2 km/h 34 % 0.0 in /  0 mm
00:10 17.4 °F /  -8.1 °C 13.9 °F /  -10.1 °C 1010.7 in /  34222.3 hPa Calm   3.2 mph /  5.1 km/h 80 % 0.0 in /  0 mm
00:13 28.0 °F /  -2.2 °C 10.7 °F /  -11.8 °C 1008.0 in /  34130.9 hPa SW 11.9 mph /  19.2 km/h 11.9 mph /  19.2 km/h 34 % 0.0 in /  0 mm
00:20 17.5 °F /  -8.1 °C 14.2 °F /  -9.9 °C 1010.7 in /  34222.3 hPa West 1.6 mph /  2.6 km/h 3.2 mph /  5.1 km/h 81 % 0.0 in /  0 mm
00:30 17.2 °F /  -8.2 °C 13.7 °F /  -10.2 °C 1011.7 in /  34256.2 hPa West 3.2 mph /  5.1 km/h 3.2 mph /  5.1 km/h 80 % 0.0 in /  0 mm
00:40 17.1 °F /  -8.3 °C 13.4 °F /  -10.3 °C 1011.7 in /  34256.2 hPa West 3.2 mph /  5.1 km/h 3.2 mph /  5.1 km/h 79 % 0.0 in /  0 mm
00:50 17.0 °F /  -8.3 °C 12.9 °F /  -10.6 °C 1011.7 in /  34256.2 hPa West 1.6 mph /  2.6 km/h 1.6 mph /  2.6 km/h 77 % 0.0 in /  0 mm
01:00 17.3 °F /  -8.2 °C 12.8 °F /  -10.7 °C 1011.7 in /  34256.2 hPa West 1.6 mph /  2.6 km/h 3.2 mph /  5.1 km/h 75 % 0.0 in /  0 mm
01:10 17.6 °F /  -8 °C 12.5 °F /  -10.8 °C 1011.7 in /  34256.2 hPa West 4.8 mph /  7.7 km/h 6.4 mph /  10.3 km/h 72 % 0.0 in /  0 mm
01:20 17.7 °F /  -7.9 °C 12.2 °F /  -11 °C 1011.7 in /  34256.2 hPa West 4.8 mph /  7.7 km/h 4.8 mph /  7.7 km/h 70 % 0.0 in /  0 mm
01:30 17.6 °F /  -8 °C 11.8 °F /  -11.2 °C 1011.7 in /  34256.2 hPa West 1.6 mph /  2.6 km/h 3.2 mph /  5.1 km/h 69 % 0.0 in /  0 mm
01:40 17.5 °F /  -8.1 °C 11.5 °F /  -11.4 °C 1010.7 in /  34222.3 hPa WSW 1.6 mph /  2.6 km/h 4.8 mph /  7.7 km/h 68 % 0.0 in /  0 mm
01:50 17.5 °F /  -8.1 °C 11.3 °F /  -11.5 °C 1010.7 in /  34222.3 hPa WSW 1.6 mph /  2.6 km/h 3.2 mph /  5.1 km/h 67 % 0.0 in /  0 mm
02:00 17.4 °F /  -8.1 °C 11.2 °F /  -11.6 °C 1011.7 in /  34256.2 hPa West 1.6 mph /  2.6 km/h 4.8 mph /  7.7 km/h 67 % 0.0 in /  0 mm
02:10 17.5 °F /  -8.1 °C 11.1 °F /  -11.6 °C 1010.7 in /  34222.3 hPa West 1.6 mph /  2.6 km/h 3.2 mph /  5.1 km/h 66 % 0.0 in /  0 mm
02:20 17.5 °F /  -8.1 °C 11.1 °F /  -11.6 °C 1010.7 in /  34222.3 hPa West 1.6 mph /  2.6 km/h 3.2 mph /  5.1 km/h 66 % 0.0 in /  0 mm
02:30 17.3 °F /  -8.2 °C 10.7 °F /  -11.8 °C 1011.7 in /  34256.2 hPa Calm   1.6 mph /  2.6 km/h 65 % 0.0 in /  0 mm
02:40 17.4 °F /  -8.1 °C 10.7 °F /  -11.8 °C 1011.7 in /  34256.2 hPa WSW 1.6 mph /  2.6 km/h 3.2 mph /  5.1 km/h 65 % 0.0 in /  0 mm
02:50 17.6 °F /  -8 °C 10.7 °F /  -11.8 °C 1011.7 in /  34256.2 hPa Calm   3.2 mph /  5.1 km/h 64 % 0.0 in /  0 mm
03:00 17.4 °F /  -8.1 °C 10.5 °F /  -11.9 °C 1012.8 in /  34293.4 hPa Calm   3.2 mph /  5.1 km/h 64 % 0.0 in /  0 mm
03:10 17.4 °F /  -8.1 °C 10.5 °F /  -11.9 °C 1012.8 in /  34293.4 hPa SW 1.6 mph /  2.6 km/h 3.2 mph /  5.1 km/h 64 % 0.0 in /  0 mm
03:20 17.1 °F /  -8.3 °C 10.2 °F /  -12.1 °C 1012.8 in /  34293.4 hPa SW 1.6 mph /  2.6 km/h 3.2 mph /  5.1 km/h 64 % 0.0 in /  0 mm
03:30 17.4 °F /  -8.1 °C 10.5 °F /  -11.9 °C 1013.8 in /  34327.3 hPa WSW 1.6 mph /  2.6 km/h 3.2 mph /  5.1 km/h 64 % 0.0 in /  0 mm
03:40 17.6 °F /  -8 °C 10.7 °F /  -11.8 °C 1013.8 in /  34327.3 hPa SW 1.6 mph /  2.6 km/h 3.2 mph /  5.1 km/h 64 % 0.0 in /  0 mm
03:50 17.9 °F /  -7.8 °C 11.0 °F /  -11.7 °C 1013.8 in /  34327.3 hPa WSW 1.6 mph /  2.6 km/h 3.2 mph /  5.1 km/h 64 % 0.0 in /  0 mm
04:00 18.1 °F /  -7.7 °C 10.7 °F /  -11.8 °C 1013.8 in /  34327.3 hPa Calm   3.2 mph /  5.1 km/h 62 % 0.0 in /  0 mm
04:10 18.3 °F /  -7.6 °C 10.9 °F /  -11.7 °C 1013.8 in /  34327.3 hPa SW 1.6 mph /  2.6 km/h 3.2 mph /  5.1 km/h 62 % 0.0 in /  0 mm
04:20 18.5 °F /  -7.5 °C 11.1 °F /  -11.6 °C 1013.8 in /  34327.3 hPa SW 1.6 mph /  2.6 km/h 1.6 mph /  2.6 km/h 62 % 0.0 in /  0 mm
04:30 18.5 °F /  -7.5 °C 11.1 °F /  -11.6 °C 1013.8 in /  34327.3 hPa SW 4.8 mph /  7.7 km/h 6.4 mph /  10.3 km/h 62 % 0.0 in /  0 mm
04:40 18.8 °F /  -7.3 °C 11.1 °F /  -11.6 °C 1013.8 in /  34327.3 hPa SW 3.2 mph /  5.1 km/h 4.8 mph /  7.7 km/h 61 % 0.0 in /  0 mm
04:50 19.2 °F /  -7.1 °C 11.0 °F /  -11.7 °C 1013.8 in /  34327.3 hPa SW 1.6 mph /  2.6 km/h 3.2 mph /  5.1 km/h 59 % 0.0 in /  0 mm
05:00 19.3 °F /  -7.1 °C 11.1 °F /  -11.6 °C 1013.8 in /  34327.3 hPa SW 1.6 mph /  2.6 km/h 3.2 mph /  5.1 km/h 59 % 0.0 in /  0 mm
05:10 20.1 °F /  -6.6 °C 11.3 °F /  -11.5 °C 1013.8 in /  34327.3 hPa SW 3.2 mph /  5.1 km/h 4.8 mph /  7.7 km/h 57 % 0.0 in /  0 mm
05:20 20.0 °F /  -6.7 °C 10.9 °F /  -11.7 °C 1013.8 in /  34327.3 hPa SW 3.2 mph /  5.1 km/h 4.8 mph /  7.7 km/h 56 % 0.0 in /  0 mm
05:30 20.0 °F /  -6.7 °C 10.7 °F /  -11.8 °C 1013.8 in /  34327.3 hPa WSW 3.2 mph /  5.1 km/h 6.4 mph /  10.3 km/h 55 % 0.0 in /  0 mm
10:33 20.4 °F /  -6.4 °C 11.3 °F /  -11.5 °C 1013.8 in /  34327.3 hPa WNW 11.1 mph /  17.9 km/h 11.1 mph /  17.9 km/h 56 % 0.0 in /  0 mm
10:34 20.4 °F /  -6.4 °C 11.3 °F /  -11.5 °C 1013.8 in /  34327.3 hPa WSW 11.1 mph /  17.9 km/h 11.1 mph /  17.9 km/h 56 % 0.0 in /  0 mm
10:39 20.4 °F /  -6.4 °C 11.1 °F /  -11.6 °C 1014.8 in /  34361.1 hPa West 7.4 mph /  11.9 km/h 7.4 mph /  11.9 km/h 55 % 0.0 in /  0 mm
10:44 20.9 °F /  -6.2 °C 11.5 °F /  -11.4 °C 1014.8 in /  34361.1 hPa WSW 3.2 mph /  5.1 km/h 3.2 mph /  5.1 km/h 55 % 0.0 in /  0 mm
10:49 20.9 °F /  -6.2 °C 11.5 °F /  -11.4 °C 1014.8 in /  34361.1 hPa SW 9.3 mph /  15 km/h 9.3 mph /  15 km/h 55 % 0.0 in /  0 mm
10:54 20.6 °F /  -6.3 °C 10.9 °F /  -11.7 °C 1014.8 in /  34361.1 hPa West 9.3 mph /  15 km/h 9.3 mph /  15 km/h 54 % 0.0 in /  0 mm
10:59 21.5 °F /  -5.8 °C 11.2 °F /  -11.6 °C 1014.8 in /  34361.1 hPa SW 3.7 mph /  6 km/h 3.7 mph /  6 km/h 52 % 0.0 in /  0 mm
11:04 22.2 °F /  -5.4 °C 12.2 °F /  -11 °C 1014.8 in /  34361.1 hPa West 10.0 mph /  16.1 km/h 10.0 mph /  16.1 km/h 53 % 0.0 in /  0 mm
11:09 22.3 °F /  -5.4 °C 11.9 °F /  -11.2 °C 1014.8 in /  34361.1 hPa NNW 5.8 mph /  9.3 km/h 5.8 mph /  9.3 km/h 52 % 0.0 in /  0 mm
11:14 21.6 °F /  -5.8 °C 11.0 °F /  -11.7 °C 1014.8 in /  34361.1 hPa West 7.4 mph /  11.9 km/h 7.4 mph /  11.9 km/h 51 % 0.0 in /  0 mm
11:19 21.9 °F /  -5.6 °C 11.0 °F /  -11.7 °C 1014.8 in /  34361.1 hPa NE 5.6 mph /  9 km/h 5.6 mph /  9 km/h 50 % 0.0 in /  0 mm
11:24 22.3 °F /  -5.4 °C 11.4 °F /  -11.4 °C 1015.8 in /  34395 hPa WSW 9.7 mph /  15.6 km/h 9.7 mph /  15.6 km/h 50 % 0.0 in /  0 mm
11:29 22.3 °F /  -5.4 °C 11.4 °F /  -11.4 °C 1015.8 in /  34395 hPa NW 13.0 mph /  20.9 km/h 13.0 mph /  20.9 km/h 50 % 0.0 in /  0 mm
11:34 22.5 °F /  -5.3 °C 11.2 °F /  -11.6 °C 1015.8 in /  34395 hPa ESE 7.4 mph /  11.9 km/h 7.4 mph /  11.9 km/h 49 % 0.0 in /  0 mm
11:39 22.8 °F /  -5.1 °C 11.5 °F /  -11.4 °C 1015.8 in /  34395 hPa WSW 5.6 mph /  9 km/h 5.6 mph /  9 km/h 49 % 0.0 in /  0 mm
11:44 22.9 °F /  -5.1 °C 11.6 °F /  -11.3 °C 1015.8 in /  34395 hPa WSW 5.6 mph /  9 km/h 5.6 mph /  9 km/h 49 % 0.0 in /  0 mm
11:49 23.2 °F /  -4.9 °C 11.6 °F /  -11.3 °C 1015.8 in /  34395 hPa SW 3.7 mph /  6 km/h 3.7 mph /  6 km/h 48 % 0.0 in /  0 mm
11:54 23.5 °F /  -4.7 °C 11.8 °F /  -11.2 °C 1015.8 in /  34395 hPa WSW 7.4 mph /  11.9 km/h 7.4 mph /  11.9 km/h 48 % 0.0 in /  0 mm
11:59 23.5 °F /  -4.7 °C 11.6 °F /  -11.3 °C 1015.8 in /  34395 hPa NNW 5.6 mph /  9 km/h 5.6 mph /  9 km/h 47 % 0.0 in /  0 mm
12:04 23.1 °F /  -4.9 °C 11.5 °F /  -11.4 °C 1015.8 in /  34395 hPa WSW 7.6 mph /  12.2 km/h 7.6 mph /  12.2 km/h 48 % 0.0 in /  0 mm
12:09 23.2 °F /  -4.9 °C 11.3 °F /  -11.5 °C 1015.8 in /  34395 hPa South 5.6 mph /  9 km/h 5.6 mph /  9 km/h 47 % 0.0 in /  0 mm
12:14 23.5 °F /  -4.7 °C 11.6 °F /  -11.3 °C 1015.8 in /  34395 hPa WSW 5.6 mph /  9 km/h 5.6 mph /  9 km/h 47 % 0.0 in /  0 mm
12:19 23.5 °F /  -4.7 °C 11.6 °F /  -11.3 °C 1015.8 in /  34395 hPa West 5.6 mph /  9 km/h 5.6 mph /  9 km/h 47 % 0.0 in /  0 mm
12:24 23.7 °F /  -4.6 °C 11.7 °F /  -11.3 °C 1015.8 in /  34395 hPa SSW 11.9 mph /  19.2 km/h 11.9 mph /  19.2 km/h 47 % 0.0 in /  0 mm
12:29 23.4 °F /  -4.8 °C 11.1 °F /  -11.6 °C 1015.8 in /  34395 hPa WSW 7.4 mph /  11.9 km/h 7.4 mph /  11.9 km/h 46 % 0.0 in /  0 mm
12:34 23.4 °F /  -4.8 °C 11.1 °F /  -11.6 °C 1015.8 in /  34395 hPa WSW 9.3 mph /  15 km/h 9.3 mph /  15 km/h 46 % 0.0 in /  0 mm
12:39 24.0 °F /  -4.4 °C 11.3 °F /  -11.5 °C 1015.8 in /  34395 hPa SSW 7.6 mph /  12.2 km/h 7.6 mph /  12.2 km/h 45 % 0.0 in /  0 mm
12:44 24.3 °F /  -4.3 °C 11.6 °F /  -11.3 °C 1015.8 in /  34395 hPa WNW 5.8 mph /  9.3 km/h 6.1 mph /  9.8 km/h 45 % 0.0 in /  0 mm
12:49 24.6 °F /  -4.1 °C 11.6 °F /  -11.3 °C 1015.8 in /  34395 hPa WSW 4.7 mph /  7.6 km/h 4.7 mph /  7.6 km/h 44 % 0.0 in /  0 mm
12:54 24.9 °F /  -3.9 °C 11.8 °F /  -11.2 °C 1014.8 in /  34361.1 hPa WSW 5.6 mph /  9 km/h 5.8 mph /  9.3 km/h 44 % 0.0 in /  0 mm
12:59 24.7 °F /  -4.1 °C 11.3 °F /  -11.5 °C 1014.8 in /  34361.1 hPa SW 7.4 mph /  11.9 km/h 7.4 mph /  11.9 km/h 43 % 0.0 in /  0 mm
13:04 24.8 °F /  -4 °C 11.4 °F /  -11.4 °C 1014.8 in /  34361.1 hPa West 9.3 mph /  15 km/h 9.3 mph /  15 km/h 43 % 0.0 in /  0 mm
13:09 24.6 °F /  -4.1 °C 11.2 °F /  -11.6 °C 1015.8 in /  34395 hPa WSW 7.4 mph /  11.9 km/h 7.4 mph /  11.9 km/h 43 % 0.0 in /  0 mm
13:14 24.4 °F /  -4.2 °C 10.7 °F /  -11.8 °C 1015.8 in /  34395 hPa West 9.3 mph /  15 km/h 9.3 mph /  15 km/h 42 % 0.0 in /  0 mm
13:19 24.5 °F /  -4.2 °C 10.7 °F /  -11.8 °C 1015.8 in /  34395 hPa SW 7.4 mph /  11.9 km/h 7.4 mph /  11.9 km/h 42 % 0.0 in /  0 mm
13:24 24.5 °F /  -4.2 °C 10.4 °F /  -12 °C 1014.8 in /  34361.1 hPa SSE 7.4 mph /  11.9 km/h 7.4 mph /  11.9 km/h 41 % 0.0 in /  0 mm
13:29 24.8 °F /  -4 °C 10.7 °F /  -11.8 °C 1014.8 in /  34361.1 hPa SW 5.6 mph /  9 km/h 5.6 mph /  9 km/h 41 % 0.0 in /  0 mm
13:34 25.1 °F /  -3.8 °C 10.6 °F /  -11.9 °C 1014.8 in /  34361.1 hPa West 16.7 mph /  26.9 km/h 16.7 mph /  26.9 km/h 40 % 0.0 in /  0 mm
13:39 25.6 °F /  -3.6 °C 11.0 °F /  -11.7 °C 1014.8 in /  34361.1 hPa WSW 11.1 mph /  17.9 km/h 11.1 mph /  17.9 km/h 40 % 0.0 in /  0 mm
13:44 25.4 °F /  -3.7 °C 10.4 °F /  -12 °C 1014.8 in /  34361.1 hPa SW 9.3 mph /  15 km/h 9.3 mph /  15 km/h 39 % 0.0 in /  0 mm
13:49 25.6 °F /  -3.6 °C 10.6 °F /  -11.9 °C 1014.8 in /  34361.1 hPa WSW 5.3 mph /  8.5 km/h 5.3 mph /  8.5 km/h 39 % 0.0 in /  0 mm
13:54 25.5 °F /  -3.6 °C 10.5 °F /  -11.9 °C 1014.8 in /  34361.1 hPa North 5.6 mph /  9 km/h 5.6 mph /  9 km/h 39 % 0.0 in /  0 mm
13:59 25.7 °F /  -3.5 °C 10.7 °F /  -11.8 °C 1014.8 in /  34361.1 hPa WSW 5.0 mph /  8 km/h 5.0 mph /  8 km/h 39 % 0.0 in /  0 mm
14:04 26.1 °F /  -3.3 °C 10.7 °F /  -11.8 °C 1014.8 in /  34361.1 hPa South 11.1 mph /  17.9 km/h 11.1 mph /  17.9 km/h 38 % 0.0 in /  0 mm
14:09 25.6 °F /  -3.6 °C 10.2 °F /  -12.1 °C 1014.8 in /  34361.1 hPa WSW 11.1 mph /  17.9 km/h 11.1 mph /  17.9 km/h 38 % 0.0 in /  0 mm
14:14 25.3 °F /  -3.7 °C 9.9 °F /  -12.3 °C 1014.8 in /  34361.1 hPa SW 7.4 mph /  11.9 km/h 7.4 mph /  11.9 km/h 38 % 0.0 in /  0 mm
14:19 25.3 °F /  -3.7 °C 9.9 °F /  -12.3 °C 1014.8 in /  34361.1 hPa West 3.7 mph /  6 km/h 3.7 mph /  6 km/h 38 % 0.0 in /  0 mm
14:24 25.1 °F /  -3.8 °C 9.8 °F /  -12.3 °C 1014.8 in /  34361.1 hPa SW 5.6 mph /  9 km/h 5.6 mph /  9 km/h 38 % 0.0 in /  0 mm
14:29 25.3 °F /  -3.7 °C 9.6 °F /  -12.4 °C 1014.8 in /  34361.1 hPa West 4.7 mph /  7.6 km/h 5.3 mph /  8.5 km/h 37 % 0.0 in /  0 mm
14:34 25.0 °F /  -3.9 °C 9.7 °F /  -12.4 °C 1014.8 in /  34361.1 hPa WSW 9.3 mph /  15 km/h 9.3 mph /  15 km/h 38 % 0.0 in /  0 mm
14:39 25.2 °F /  -3.8 °C 9.4 °F /  -12.6 °C 1014.8 in /  34361.1 hPa West 5.6 mph /  9 km/h 5.6 mph /  9 km/h 37 % 0.0 in /  0 mm
14:40 25.3 °F /  -3.7 °C 9.6 °F /  -12.4 °C 1014.8 in /  34361.1 hPa WSW 5.6 mph /  9 km/h 5.6 mph /  9 km/h 37 % 0.0 in /  0 mm
14:45 25.5 °F /  -3.6 °C 9.7 °F /  -12.4 °C 1014.8 in /  34361.1 hPa SW 8.7 mph /  14 km/h 8.7 mph /  14 km/h 37 % 0.0 in /  0 mm
14:50 25.4 °F /  -3.7 °C 9.7 °F /  -12.4 °C 1014.8 in /  34361.1 hPa West 5.6 mph /  9 km/h 5.6 mph /  9 km/h 37 % 0.0 in /  0 mm
14:55 25.3 °F /  -3.7 °C 9.2 °F /  -12.7 °C 1014.8 in /  34361.1 hPa South 9.0 mph /  14.5 km/h 9.0 mph /  14.5 km/h 36 % 0.0 in /  0 mm
15:00 25.6 °F /  -3.6 °C 9.8 °F /  -12.3 °C 1014.8 in /  34361.1 hPa SSE 5.6 mph /  9 km/h 5.6 mph /  9 km/h 37 % 0.0 in /  0 mm
15:05 25.9 °F /  -3.4 °C 9.7 °F /  -12.4 °C 1014.8 in /  34361.1 hPa West 9.3 mph /  15 km/h 9.3 mph /  15 km/h 36 % 0.0 in /  0 mm
15:10 26.4 °F /  -3.1 °C 10.1 °F /  -12.2 °C 1014.8 in /  34361.1 hPa WSW 6.4 mph /  10.3 km/h 6.4 mph /  10.3 km/h 36 % 0.0 in /  0 mm
15:15 26.5 °F /  -3.1 °C 10.2 °F /  -12.1 °C 1014.8 in /  34361.1 hPa West 7.4 mph /  11.9 km/h 7.4 mph /  11.9 km/h 36 % 0.0 in /  0 mm
15:20 26.5 °F /  -3.1 °C 10.2 °F /  -12.1 °C 1014.8 in /  34361.1 hPa SSW 5.6 mph /  9 km/h 5.6 mph /  9 km/h 36 % 0.0 in /  0 mm
15:25 26.5 °F /  -3.1 °C 10.2 °F /  -12.1 °C 1014.8 in /  34361.1 hPa WSW 9.5 mph /  15.3 km/h 9.5 mph /  15.3 km/h 36 % 0.0 in /  0 mm
15:30 26.3 °F /  -3.2 °C 9.2 °F /  -12.7 °C 1014.8 in /  34361.1 hPa WSW 9.3 mph /  15 km/h 9.3 mph /  15 km/h 34 % 0.0 in /  0 mm
15:35 26.2 °F /  -3.2 °C 8.7 °F /  -12.9 °C 1014.8 in /  34361.1 hPa SSW 7.4 mph /  11.9 km/h 7.4 mph /  11.9 km/h 33 % 0.0 in /  0 mm
15:40 26.2 °F /  -3.2 °C 9.5 °F /  -12.5 °C 1014.8 in /  34361.1 hPa SW 5.6 mph /  9 km/h 5.6 mph /  9 km/h 35 % 0.0 in /  0 mm
15:45 26.4 °F /  -3.1 °C 9.7 °F /  -12.4 °C 1014.8 in /  34361.1 hPa West 6.4 mph /  10.3 km/h 6.4 mph /  10.3 km/h 35 % 0.0 in /  0 mm
15:50 26.5 °F /  -3.1 °C 9.8 °F /  -12.3 °C 1013.8 in /  34327.3 hPa West 7.4 mph /  11.9 km/h 7.4 mph /  11.9 km/h 35 % 0.0 in /  0 mm
15:55 26.3 °F /  -3.2 °C 9.6 °F /  -12.4 °C 1013.8 in /  34327.3 hPa WNW 3.9 mph /  6.3 km/h 3.9 mph /  6.3 km/h 35 % 0.0 in /  0 mm
16:00 26.7 °F /  -2.9 °C 9.9 °F /  -12.3 °C 1013.8 in /  34327.3 hPa WNW 9.7 mph /  15.6 km/h 9.7 mph /  15.6 km/h 35 % 0.0 in /  0 mm
16:05 27.0 °F /  -2.8 °C 9.3 °F /  -12.6 °C 1013.8 in /  34327.3 hPa West 7.4 mph /  11.9 km/h 7.4 mph /  11.9 km/h 33 % 0.0 in /  0 mm
16:10 26.7 °F /  -2.9 °C 9.1 °F /  -12.7 °C 1013.8 in /  34327.3 hPa WNW 5.6 mph /  9 km/h 5.6 mph /  9 km/h 33 % 0.0 in /  0 mm
16:15 26.7 °F /  -2.9 °C 9.6 °F /  -12.4 °C 1013.8 in /  34327.3 hPa NNW 5.6 mph /  9 km/h 5.6 mph /  9 km/h 34 % 0.0 in /  0 mm
16:20 26.5 °F /  -3.1 °C 9.8 °F /  -12.3 °C 1014.8 in /  34361.1 hPa North 5.6 mph /  9 km/h 5.6 mph /  9 km/h 35 % 0.0 in /  0 mm
16:25 25.5 °F /  -3.6 °C 10.5 °F /  -11.9 °C 1014.8 in /  34361.1 hPa North 7.4 mph /  11.9 km/h 7.4 mph /  11.9 km/h 39 % 0.0 in /  0 mm
16:30 25.4 °F /  -3.7 °C 10.8 °F /  -11.8 °C 1014.8 in /  34361.1 hPa NW 9.3 mph /  15 km/h 9.3 mph /  15 km/h 40 % 0.0 in /  0 mm
16:35 25.0 °F /  -3.9 °C 10.8 °F /  -11.8 °C 1014.8 in /  34361.1 hPa NNE 11.1 mph /  17.9 km/h 11.1 mph /  17.9 km/h 41 % 0.0 in /  0 mm
16:40 24.9 °F /  -3.9 °C 11.4 °F /  -11.4 °C 1014.8 in /  34361.1 hPa ENE 16.7 mph /  26.9 km/h 16.7 mph /  26.9 km/h 43 % 0.0 in /  0 mm
16:45 24.2 °F /  -4.3 °C 11.8 °F /  -11.2 °C 1014.8 in /  34361.1 hPa East 11.1 mph /  17.9 km/h 11.1 mph /  17.9 km/h 46 % 0.0 in /  0 mm
16:50 24.3 °F /  -4.3 °C 12.3 °F /  -10.9 °C 1014.8 in /  34361.1 hPa SSE 11.1 mph /  17.9 km/h 11.1 mph /  17.9 km/h 47 % 0.0 in /  0 mm
16:51 24.3 °F /  -4.3 °C 12.3 °F /  -10.9 °C 1014.8 in /  34361.1 hPa ESE 9.3 mph /  15 km/h 9.3 mph /  15 km/h 47 % 0.0 in /  0 mm
16:56 24.3 °F /  -4.3 °C 12.3 °F /  -10.9 °C 1014.8 in /  34361.1 hPa East 5.6 mph /  9 km/h 5.6 mph /  9 km/h 47 % 0.0 in /  0 mm
17:01 24.2 °F /  -4.3 °C 12.8 °F /  -10.7 °C 1014.8 in /  34361.1 hPa ESE 13.0 mph /  20.9 km/h 13.0 mph /  20.9 km/h 49 % 0.0 in /  0 mm
17:06 24.6 °F /  -4.1 °C 13.2 °F /  -10.4 °C 1014.8 in /  34361.1 hPa ESE 5.6 mph /  9 km/h 5.6 mph /  9 km/h 49 % 0.0 in /  0 mm
17:11 24.0 °F /  -4.4 °C 12.9 °F /  -10.6 °C 1014.8 in /  34361.1 hPa ESE 16.7 mph /  26.9 km/h 16.7 mph /  26.9 km/h 50 % 0.0 in /  0 mm
17:16 23.9 °F /  -4.5 °C 12.8 °F /  -10.7 °C 1014.8 in /  34361.1 hPa East 13.0 mph /  20.9 km/h 13.0 mph /  20.9 km/h 50 % 0.0 in /  0 mm
17:21 24.5 °F /  -4.2 °C 13.4 °F /  -10.3 °C 1015.8 in /  34395 hPa SSW 7.4 mph /  11.9 km/h 7.4 mph /  11.9 km/h 50 % 0.0 in /  0 mm
17:26 25.0 °F /  -3.9 °C 13.2 °F /  -10.4 °C 1015.8 in /  34395 hPa SSW 9.3 mph /  15 km/h 9.3 mph /  15 km/h 48 % 0.0 in /  0 mm
17:36 25.0 °F /  -3.9 °C 12.9 °F /  -10.6 °C 1015.8 in /  34395 hPa SSW 12.6 mph /  20.3 km/h 12.6 mph /  20.3 km/h 47 % 0.0 in /  0 mm
17:41 25.3 °F /  -3.7 °C 13.2 °F /  -10.4 °C 1015.8 in /  34395 hPa NNW 3.7 mph /  6 km/h 3.7 mph /  6 km/h 47 % 0.0 in /  0 mm
17:46 25.4 °F /  -3.7 °C 13.3 °F /  -10.4 °C 1015.8 in /  34395 hPa South 6.4 mph /  10.3 km/h 6.4 mph /  10.3 km/h 47 % 0.0 in /  0 mm
17:51 25.3 °F /  -3.7 °C 13.2 °F /  -10.4 °C 1015.8 in /  34395 hPa SSW 14.8 mph /  23.8 km/h 14.8 mph /  23.8 km/h 47 % 0.0 in /  0 mm
17:56 25.6 °F /  -3.6 °C 13.4 °F /  -10.3 °C 1015.8 in /  34395 hPa SW 5.8 mph /  9.3 km/h 5.8 mph /  9.3 km/h 47 % 0.0 in /  0 mm
18:01 25.8 °F /  -3.4 °C 13.6 °F /  -10.2 °C 1015.8 in /  34395 hPa SW 5.6 mph /  9 km/h 5.6 mph /  9 km/h 47 % 0.0 in /  0 mm
18:06 25.7 °F /  -3.5 °C 13.2 °F /  -10.4 °C 1015.8 in /  34395 hPa West 9.3 mph /  15 km/h 9.3 mph /  15 km/h 46 % 0.0 in /  0 mm
18:11 25.8 °F /  -3.4 °C 13.3 °F /  -10.4 °C 1015.8 in /  34395 hPa South 7.4 mph /  11.9 km/h 7.4 mph /  11.9 km/h 46 % 0.0 in /  0 mm
18:16 25.3 °F /  -3.7 °C 12.8 °F /  -10.7 °C 1015.8 in /  34395 hPa SW 10.0 mph /  16.1 km/h 10.0 mph /  16.1 km/h 46 % 0.0 in /  0 mm
18:21 25.3 °F /  -3.7 °C 12.8 °F /  -10.7 °C 1015.8 in /  34395 hPa WSW 8.7 mph /  14 km/h 8.7 mph /  14 km/h 46 % 0.0 in /  0 mm
18:26 24.6 °F /  -4.1 °C 12.2 °F /  -11 °C 1015.8 in /  34395 hPa South 11.1 mph /  17.9 km/h 11.1 mph /  17.9 km/h 46 % 0.0 in /  0 mm
18:31 24.5 °F /  -4.2 °C 12.4 °F /  -10.9 °C 1015.8 in /  34395 hPa SSW 9.3 mph /  15 km/h 9.3 mph /  15 km/h 47 % 0.0 in /  0 mm
18:36 24.3 °F /  -4.3 °C 12.3 °F /  -10.9 °C 1015.8 in /  34395 hPa SW 11.9 mph /  19.2 km/h 11.9 mph /  19.2 km/h 47 % 0.0 in /  0 mm
18:41 24.4 °F /  -4.2 °C 12.3 °F /  -10.9 °C 1015.8 in /  34395 hPa WSW 11.1 mph /  17.9 km/h 11.1 mph /  17.9 km/h 47 % 0.0 in /  0 mm
18:46 24.3 °F /  -4.3 °C 12.3 °F /  -10.9 °C 1015.8 in /  34395 hPa WSW 8.7 mph /  14 km/h 8.7 mph /  14 km/h 47 % 0.0 in /  0 mm
18:51 24.2 °F /  -4.3 °C 12.2 °F /  -11 °C 1015.8 in /  34395 hPa South 6.4 mph /  10.3 km/h 6.4 mph /  10.3 km/h 47 % 0.0 in /  0 mm
18:56 24.0 °F /  -4.4 °C 12.0 °F /  -11.1 °C 1015.8 in /  34395 hPa ESE 9.3 mph /  15 km/h 9.3 mph /  15 km/h 47 % 0.0 in /  0 mm
19:01 23.6 °F /  -4.7 °C 11.9 °F /  -11.2 °C 1015.8 in /  34395 hPa WSW 11.1 mph /  17.9 km/h 11.1 mph /  17.9 km/h 48 % 0.0 in /  0 mm
19:06 23.4 °F /  -4.8 °C 11.8 °F /  -11.2 °C 1015.8 in /  34395 hPa WSW 5.6 mph /  9 km/h 5.6 mph /  9 km/h 48 % 0.0 in /  0 mm
19:10 18.5 °F /  -7.5 °C 14.0 °F /  -10 °C 1019.9 in /  34533.8 hPa NNE 1.6 mph /  2.6 km/h 1.6 mph /  2.6 km/h 75 % 0.0 in /  0 mm
19:11 23.3 °F /  -4.8 °C 11.7 °F /  -11.3 °C 1015.8 in /  34395 hPa WSW 6.1 mph /  9.8 km/h 6.1 mph /  9.8 km/h 48 % 0.0 in /  0 mm
19:16 23.1 °F /  -4.9 °C 11.8 °F /  -11.2 °C 1015.8 in /  34395 hPa SW 11.4 mph /  18.3 km/h 11.4 mph /  18.3 km/h 49 % 0.0 in /  0 mm
19:20 18.4 °F /  -7.6 °C 13.9 °F /  -10.1 °C 1019.9 in /  34533.8 hPa NNE 1.6 mph /  2.6 km/h 1.6 mph /  2.6 km/h 75 % 0.0 in /  0 mm
19:21 22.7 °F /  -5.2 °C 11.7 °F /  -11.3 °C 1016.8 in /  34428.8 hPa SW 13.0 mph /  20.9 km/h 13.0 mph /  20.9 km/h 50 % 0.0 in /  0 mm
19:26 22.5 °F /  -5.3 °C 11.8 °F /  -11.2 °C 1016.8 in /  34428.8 hPa SSW 5.6 mph /  9 km/h 5.6 mph /  9 km/h 51 % 0.0 in /  0 mm
19:30 18.3 °F /  -7.6 °C 14.0 °F /  -10 °C 1019.9 in /  34533.8 hPa Calm   1.6 mph /  2.6 km/h 76 % 0.0 in /  0 mm
19:31 22.4 °F /  -5.3 °C 12.1 °F /  -11.1 °C 1016.8 in /  34428.8 hPa SSW 7.4 mph /  11.9 km/h 7.4 mph /  11.9 km/h 52 % 0.0 in /  0 mm
19:36 22.3 °F /  -5.4 °C 11.9 °F /  -11.2 °C 1016.8 in /  34428.8 hPa South 11.1 mph /  17.9 km/h 11.1 mph /  17.9 km/h 52 % 0.0 in /  0 mm
19:40 18.2 °F /  -7.7 °C 13.9 °F /  -10.1 °C 1019.9 in /  34533.8 hPa Calm     76 % 0.0 in /  0 mm
19:41 22.0 °F /  -5.6 °C 12.0 °F /  -11.1 °C 1016.8 in /  34428.8 hPa SW 7.4 mph /  11.9 km/h 7.4 mph /  11.9 km/h 53 % 0.0 in /  0 mm
19:46 21.8 °F /  -5.7 °C 12.1 °F /  -11.1 °C 1016.8 in /  34428.8 hPa SW 9.3 mph /  15 km/h 9.3 mph /  15 km/h 54 % 0.0 in /  0 mm
19:50 18.2 °F /  -7.7 °C 14.1 °F /  -9.9 °C 1019.9 in /  34533.8 hPa Calm     77 % 0.0 in /  0 mm
19:51 21.7 °F /  -5.7 °C 12.0 °F /  -11.1 °C 1017.8 in /  34462.7 hPa SW 7.4 mph /  11.9 km/h 7.4 mph /  11.9 km/h 54 % 0.0 in /  0 mm
19:56 21.5 °F /  -5.8 °C 12.3 °F /  -10.9 °C 1017.8 in /  34462.7 hPa South 1.9 mph /  3.1 km/h   56 % 0.0 in /  0 mm
20:00 18.2 °F /  -7.7 °C 14.1 °F /  -9.9 °C 1019.9 in /  34533.8 hPa Calm     77 % 0.0 in /  0 mm
20:01 21.5 °F /  -5.8 °C 12.3 °F /  -10.9 °C 1017.8 in /  34462.7 hPa West 5.6 mph /  9 km/h 5.6 mph /  9 km/h 56 % 0.0 in /  0 mm
20:06 21.3 °F /  -5.9 °C 12.2 °F /  -11 °C 1017.8 in /  34462.7 hPa SSW 5.6 mph /  9 km/h 5.6 mph /  9 km/h 56 % 0.0 in /  0 mm
20:10 18.2 °F /  -7.7 °C 14.1 °F /  -9.9 °C 1019.9 in /  34533.8 hPa Calm     77 % 0.0 in /  0 mm
20:11 21.1 °F /  -6.1 °C 12.0 °F /  -11.1 °C 1017.8 in /  34462.7 hPa WSW 4.2 mph /  6.8 km/h 4.2 mph /  6.8 km/h 56 % 0.0 in /  0 mm
20:16 21.0 °F /  -6.1 °C 11.9 °F /  -11.2 °C 1017.8 in /  34462.7 hPa SSW 5.6 mph /  9 km/h 5.6 mph /  9 km/h 56 % 0.0 in /  0 mm
20:20 18.3 °F /  -7.6 °C 14.2 °F /  -9.9 °C 1019.9 in /  34533.8 hPa Calm     77 % 0.0 in /  0 mm
20:21 20.9 °F /  -6.2 °C 12.3 °F /  -10.9 °C 1017.8 in /  34462.7 hPa Calm     58 % 0.0 in /  0 mm
20:26 20.8 °F /  -6.2 °C 12.2 °F /  -11 °C 1017.8 in /  34462.7 hPa WSW 5.6 mph /  9 km/h 5.6 mph /  9 km/h 58 % 0.0 in /  0 mm
20:30 18.4 °F /  -7.6 °C 14.3 °F /  -9.8 °C 1019.9 in /  34533.8 hPa Calm   1.6 mph /  2.6 km/h 77 % 0.0 in /  0 mm
20:31 20.7 °F /  -6.3 °C 12.1 °F /  -11.1 °C 1017.8 in /  34462.7 hPa WSW 3.7 mph /  6 km/h 3.7 mph /  6 km/h 58 % 0.0 in /  0 mm
20:36 20.6 °F /  -6.3 °C 12.1 °F /  -11.1 °C 1017.8 in /  34462.7 hPa West 3.7 mph /  6 km/h 3.7 mph /  6 km/h 58 % 0.0 in /  0 mm
20:40 18.5 °F /  -7.5 °C 14.4 °F /  -9.8 °C 1019.9 in /  34533.8 hPa Calm     77 % 0.0 in /  0 mm
20:41 20.5 °F /  -6.4 °C 12.2 °F /  -11 °C 1017.8 in /  34462.7 hPa SW 3.7 mph /  6 km/h 3.7 mph /  6 km/h 59 % 0.0 in /  0 mm
20:46 20.4 °F /  -6.4 °C 12.1 °F /  -11.1 °C 1017.8 in /  34462.7 hPa SW 1.9 mph /  3.1 km/h 1.9 mph /  3.1 km/h 59 % 0.0 in /  0 mm
20:50 18.5 °F /  -7.5 °C 14.6 °F /  -9.7 °C 1019.9 in /  34533.8 hPa Calm   3.2 mph /  5.1 km/h 78 % 0.0 in /  0 mm
20:51 20.3 °F /  -6.5 °C 12.3 °F /  -10.9 °C 1017.8 in /  34462.7 hPa SW 1.9 mph /  3.1 km/h 1.9 mph /  3.1 km/h 60 % 0.0 in /  0 mm
20:56 20.2 °F /  -6.6 °C 12.4 °F /  -10.9 °C 1017.8 in /  34462.7 hPa Calm     61 % 0.0 in /  0 mm
21:00 18.4 °F /  -7.6 °C 14.5 °F /  -9.7 °C 1019.9 in /  34533.8 hPa NNE 3.2 mph /  5.1 km/h 3.2 mph /  5.1 km/h 78 % 0.0 in /  0 mm
21:01 20.1 °F /  -6.6 °C 12.3 °F /  -10.9 °C 1017.8 in /  34462.7 hPa WSW 1.9 mph /  3.1 km/h   61 % 0.0 in /  0 mm
21:06 20.1 °F /  -6.6 °C 12.6 °F /  -10.8 °C 1018.8 in /  34496.6 hPa WSW 1.9 mph /  3.1 km/h   62 % 0.0 in /  0 mm
21:10 18.3 °F /  -7.6 °C 14.4 °F /  -9.8 °C 1019.9 in /  34533.8 hPa NE 1.6 mph /  2.6 km/h 3.2 mph /  5.1 km/h 78 % 0.0 in /  0 mm
21:11 20.0 °F /  -6.7 °C 12.5 °F /  -10.8 °C 1018.8 in /  34496.6 hPa Calm     62 % 0.0 in /  0 mm
21:16 19.9 °F /  -6.7 °C 12.9 °F /  -10.6 °C 1018.8 in /  34496.6 hPa Calm     64 % 0.0 in /  0 mm
21:20 18.1 °F /  -7.7 °C 14.2 °F /  -9.9 °C 1019.9 in /  34533.8 hPa Calm   1.6 mph /  2.6 km/h 78 % 0.0 in /  0 mm
21:21 19.9 °F /  -6.7 °C 12.9 °F /  -10.6 °C 1018.8 in /  34496.6 hPa Calm     64 % 0.0 in /  0 mm
21:26 19.9 °F /  -6.7 °C 13.1 °F /  -10.5 °C 1018.8 in /  34496.6 hPa South 1.4 mph /  2.3 km/h   65 % 0.0 in /  0 mm
21:30 17.9 °F /  -7.8 °C 14.0 °F /  -10 °C 1019.9 in /  34533.8 hPa Calm     78 % 0.0 in /  0 mm
21:31 19.8 °F /  -6.8 °C 13.1 °F /  -10.5 °C 1018.8 in /  34496.6 hPa Calm     65 % 0.0 in /  0 mm
21:36 19.8 °F /  -6.8 °C 13.1 °F /  -10.5 °C 1018.8 in /  34496.6 hPa SSW 1.9 mph /  3.1 km/h 1.9 mph /  3.1 km/h 65 % 0.0 in /  0 mm
21:40 17.7 °F /  -7.9 °C 13.8 °F /  -10.1 °C 1019.9 in /  34533.8 hPa Calm     78 % 0.0 in /  0 mm
21:41 19.7 °F /  -6.8 °C 13.2 °F /  -10.4 °C 1018.8 in /  34496.6 hPa Calm     66 % 0.0 in /  0 mm
21:46 19.6 °F /  -6.9 °C 13.1 °F /  -10.5 °C 1018.8 in /  34496.6 hPa Calm     66 % 0.0 in /  0 mm
21:50 17.6 °F /  -8 °C 13.9 °F /  -10.1 °C 1019.9 in /  34533.8 hPa Calm     79 % 0.0 in /  0 mm
21:51 19.6 °F /  -6.9 °C 13.3 °F /  -10.4 °C 1018.8 in /  34496.6 hPa Calm     67 % 0.0 in /  0 mm
21:56 19.5 °F /  -6.9 °C 13.2 °F /  -10.4 °C 1018.8 in /  34496.6 hPa Calm     67 % 0.0 in /  0 mm
22:00 17.6 °F /  -8 °C 13.9 °F /  -10.1 °C 1019.9 in /  34533.8 hPa Calm     79 % 0.0 in /  0 mm
22:01 19.5 °F /  -6.9 °C 13.4 °F /  -10.3 °C 1018.8 in /  34496.6 hPa ESE 1.9 mph /  3.1 km/h   68 % 0.0 in /  0 mm
22:06 19.5 °F /  -6.9 °C 13.7 °F /  -10.2 °C 1018.8 in /  34496.6 hPa ESE 1.9 mph /  3.1 km/h   69 % 0.0 in /  0 mm
22:10 17.5 °F /  -8.1 °C 13.8 °F /  -10.1 °C 1019.9 in /  34533.8 hPa Calm     79 % 0.0 in /  0 mm
22:11 19.4 °F /  -7 °C 13.3 °F /  -10.4 °C 1018.8 in /  34496.6 hPa Calm     68 % 0.0 in /  0 mm
22:16 19.3 °F /  -7.1 °C 13.4 °F /  -10.3 °C 1018.8 in /  34496.6 hPa Calm     69 % 0.0 in /  0 mm
22:20 17.4 °F /  -8.1 °C 13.9 °F /  -10.1 °C 1019.9 in /  34533.8 hPa Calm     80 % 0.0 in /  0 mm
22:21 19.3 °F /  -7.1 °C 13.4 °F /  -10.3 °C 1018.8 in /  34496.6 hPa Calm     69 % 0.0 in /  0 mm
22:26 19.2 °F /  -7.1 °C 13.4 °F /  -10.3 °C 1018.8 in /  34496.6 hPa Calm     69 % 0.0 in /  0 mm
22:30 17.4 °F /  -8.1 °C 13.9 °F /  -10.1 °C 1019.9 in /  34533.8 hPa SSW 1.6 mph /  2.6 km/h 1.6 mph /  2.6 km/h 80 % 0.0 in /  0 mm
22:31 19.2 °F /  -7.1 °C 13.4 °F /  -10.3 °C 1018.8 in /  34496.6 hPa Calm     69 % 0.0 in /  0 mm
22:36 19.2 °F /  -7.1 °C 13.4 °F /  -10.3 °C 1019.9 in /  34533.8 hPa South 2.3 mph /  3.7 km/h 2.3 mph /  3.7 km/h 69 % 0.0 in /  0 mm
22:40 17.4 °F /  -8.1 °C 14.1 °F /  -9.9 °C 1019.9 in /  34533.8 hPa SSE 1.6 mph /  2.6 km/h 1.6 mph /  2.6 km/h 81 % 0.0 in /  0 mm
22:41 19.2 °F /  -7.1 °C 13.6 °F /  -10.2 °C 1019.9 in /  34533.8 hPa Calm     70 % 0.0 in /  0 mm
22:46 19.1 °F /  -7.2 °C 13.5 °F /  -10.3 °C 1019.9 in /  34533.8 hPa Calm     70 % 0.0 in /  0 mm
22:50 17.3 °F /  -8.2 °C 14.0 °F /  -10 °C 1019.9 in /  34533.8 hPa ESE 1.6 mph /  2.6 km/h 3.2 mph /  5.1 km/h 81 % 0.0 in /  0 mm
22:51 19.1 °F /  -7.2 °C 13.7 °F /  -10.2 °C 1019.9 in /  34533.8 hPa Calm     71 % 0.0 in /  0 mm
22:56 19.1 °F /  -7.2 °C 13.7 °F /  -10.2 °C 1019.9 in /  34533.8 hPa Calm     71 % 0.0 in /  0 mm
23:00 17.2 °F /  -8.2 °C 13.9 °F /  -10.1 °C 1019.9 in /  34533.8 hPa Calm   3.2 mph /  5.1 km/h 81 % 0.0 in /  0 mm
23:01 19.1 °F /  -7.2 °C 13.7 °F /  -10.2 °C 1019.9 in /  34533.8 hPa Calm     71 % 0.0 in /  0 mm
23:06 19.1 °F /  -7.2 °C 13.7 °F /  -10.2 °C 1018.8 in /  34496.6 hPa Calm     71 % 0.0 in /  0 mm
23:10 17.0 °F /  -8.3 °C 13.9 °F /  -10.1 °C 1020.9 in /  34567.7 hPa Calm   1.6 mph /  2.6 km/h 82 % 0.0 in /  0 mm
23:11 19.1 °F /  -7.2 °C 13.7 °F /  -10.2 °C 1018.8 in /  34496.6 hPa Calm     71 % 0.0 in /  0 mm
23:16 19.0 °F /  -7.2 °C 13.8 °F /  -10.1 °C 1018.8 in /  34496.6 hPa ESE 1.9 mph /  3.1 km/h   72 % 0.0 in /  0 mm
23:20 16.9 °F /  -8.4 °C 13.8 °F /  -10.1 °C 1020.9 in /  34567.7 hPa Calm   1.6 mph /  2.6 km/h 82 % 0.0 in /  0 mm
23:21 19.0 °F /  -7.2 °C 13.8 °F /  -10.1 °C 1019.9 in /  34533.8 hPa ENE 2.6 mph /  4.2 km/h   72 % 0.0 in /  0 mm
23:26 18.9 °F /  -7.3 °C 13.9 °F /  -10.1 °C 1019.9 in /  34533.8 hPa ENE 3.7 mph /  6 km/h 3.7 mph /  6 km/h 73 % 0.0 in /  0 mm
23:30 16.9 °F /  -8.4 °C 13.8 °F /  -10.1 °C 1019.9 in /  34533.8 hPa Calm   1.6 mph /  2.6 km/h 82 % 0.0 in /  0 mm
23:31 18.8 °F /  -7.3 °C 13.8 °F /  -10.1 °C 1019.9 in /  34533.8 hPa NNE 1.9 mph /  3.1 km/h 1.9 mph /  3.1 km/h 73 % 0.0 in /  0 mm
23:36 18.8 °F /  -7.3 °C 13.8 °F /  -10.1 °C 1019.9 in /  34533.8 hPa NNE 3.7 mph /  6 km/h   73 % 0.0 in /  0 mm
23:40 16.8 °F /  -8.4 °C 13.9 °F /  -10.1 °C 1019.9 in /  34533.8 hPa Calm     83 % 0.0 in /  0 mm
23:41 18.7 °F /  -7.4 °C 13.8 °F /  -10.1 °C 1019.9 in /  34533.8 hPa Calm     73 % 0.0 in /  0 mm
23:46 18.6 °F /  -7.4 °C 13.9 °F /  -10.1 °C 1019.9 in /  34533.8 hPa Calm     74 % 0.0 in /  0 mm
23:50 16.8 °F /  -8.4 °C 13.9 °F /  -10.1 °C 1019.9 in /  34533.8 hPa NNW 3.2 mph /  5.1 km/h 4.8 mph /  7.7 km/h 83 % 0.0 in /  0 mm
23:51 18.5 °F /  -7.5 °C 13.8 °F /  -10.1 °C 1019.9 in /  34533.8 hPa Calm     74 % 0.0 in /  0 mm
23:56 18.5 °F /  -7.5 °C 13.8 °F /  -10.1 °C 1019.9 in /  34533.8 hPa NNE 3.7 mph /  6 km/h 3.7 mph /  6 km/h 74 % 0.0 in /  0 mm
Meteo Sesrovires
Elogis d' Weather Underground - 3.75 mb

Guio original per  Jim McMurry - jmcmurry@mwt.net Adaptat per a la plantilla per  Wim van der Kuil - Leuven-Template.eu

Trobareu la nostra informacio del temps tambe a:

Weather Underground

AWEKAS